Terminal Aerodrome Forecast
Issued by NWS Sterling, VA

Current Version | Previous Version | Text Only | Print | Product List | Glossary Off
Versions: 1 2 3 4 5 6 7 8 9 10 11 12 13 14 15 16 17 18 19 20 21 22 23

491
FTUS41 KLWX 252059 AAA
TAFDCA
TAF AMD
KDCA 252059Z 2521/2618 29008G16KT P6SM SCT070 SCT120
     FM260000 31007KT P6SM FEW070
     FM261600 27007KT P6SM SCT070=

USA.gov is the U.S. government's official web portal to all federal, state and local government web resources and services.